• Join FlightAware (Why Join?)
  • Login
  • US Flag 
12:18AM EST


 

Airport Tracker/Info


-or-


 

Live Flight TrackerFlight Track Log ✈ SKW6345 ✈ 25-Apr-2013 ✈ KCOD - KDEN

Flight Track Log - Related Links

Times and Time Zones

All times are in EDT time to prevent confusion due to time zone crossing. See the SKW6345 flight status page for this flight to view local times or setup timezone preferences in your user account.

Time Position Orientation Groundspeed Altitude Reporting Facility
EDT Latitude Longitude Course Direction KTS MPH feet Rate Location/Type
09:22AM 44.5042 -109.0561 154° Southeast 154 177 6,200  Level Salt Lake Center
09:23AM 44.5363 -109.0109 30° Northeast  Level FlightAware Approximate
09:23AM 44.4567 -109.0669 189° South 226 260 8,700  Level Salt Lake Center
09:24AM 44.6079 -108.9500 180° South  Level FlightAware Approximate
09:24AM 44.4736 -108.9911 73° East 242 278 10,700  Level Salt Lake Center
09:25AM 44.4994 -108.8950 159° South  Level FlightAware Approximate
09:25AM 44.5492 -108.9872 North 250 288 12,800  Level Salt Lake Center
09:26AM 44.3922 -108.8336 154° Southeast  Level FlightAware Approximate
09:26AM 44.5856 -108.8867 63° Northeast 302 348 14,800  Level Salt Lake Center
09:27AM 44.2875 -108.7639 154° Southeast  Level FlightAware Approximate
09:27AM 44.5153 -108.7861 134° Southeast 333 383 17,000  Level Salt Lake Center
09:28AM 44.4269 -108.7536 165° South 342 394 19,300 1,860 Climbing Salt Lake Center
09:29AM 44.3456 -108.6856 149° Southeast 354 407 20,800 1,740 Climbing Salt Lake Center
09:30AM 44.2506 -108.5994 147° Southeast 362 417 22,900 1,680 Climbing Salt Lake Center
09:31AM 44.1647 -108.5244 148° Southeast 375 432 24,300 1,260 Climbing Salt Lake Center
09:32AM 44.0767 -108.4475 148° Southeast 387 445 25,600 1,260 Climbing Salt Lake Center
09:33AM 43.9736 -108.3556 147° Southeast 394 453 26,900 1,080 Climbing Salt Lake Center
09:34AM 43.8853 -108.2789 148° Southeast 392 451 27,800 900 Climbing Salt Lake Center
09:35AM 43.7792 -108.1856 148° Southeast 403 464 28,800 780 Climbing Salt Lake Center
09:36AM 43.6856 -108.1053 148° Southeast 410 472 29,500 780 Climbing Salt Lake Center
09:37AM 43.5914 -108.0194 147° Southeast 418 481 30,500 720 Climbing Salt Lake Center
09:38AM 43.4808 -107.9258 148° Southeast 419 482 31,000 240 Climbing Salt Lake Center
09:39AM 43.3836 -107.8406 147° Southeast 427 491 31,000  Level Salt Lake Center
09:40AM 43.2681 -107.7419 148° Southeast 435 501 31,000  Level Salt Lake Center
09:41AM 43.1700 -107.6586 148° Southeast 436 502 31,000  Level Salt Lake Center
09:42AM 43.1169 -107.6117 147° Southeast 434 499 31,000  Level Denver Center
09:43AM 43.0250 -107.5333 148° Southeast 430 495 31,000  Level Denver Center
09:44AM 42.9122 -107.4392 149° Southeast 424 488 31,000  Level Denver Center
09:44AM 42.8589 -107.3947 149° Southeast 424 488 31,000  Level Salt Lake Center
09:45AM 42.7628 -107.3136 148° Southeast 423 487 31,000  Level Salt Lake Center
09:46AM 42.6511 -107.2203 148° Southeast 422 486 31,000  Level Salt Lake Center
09:47AM 42.6103 -107.1844 147° Southeast 423 487 31,000  Level Denver Center
09:48AM 42.4925 -107.0861 148° Southeast 419 482 31,000  Level Denver Center
09:49AM 42.3953 -107.0072 149° Southeast 424 488 31,000  Level Denver Center
09:50AM 42.2833 -106.9128 148° Southeast 423 487 31,000  Level Denver Center
09:51AM 42.1867 -106.8342 149° Southeast 423 487 31,000  Level Denver Center
09:52AM 42.0906 -106.7539 148° Southeast 425 489 31,000  Level Denver Center
09:53AM 41.9817 -106.6467 144° Southeast 431 496 31,000  Level Denver Center
09:54AM 41.8878 -106.5558 144° Southeast 433 498 31,000  Level Denver Center
09:55AM 41.7883 -106.4589 144° Southeast 431 496 31,000  Level Denver Center
09:56AM 41.6783 -106.3533 144° Southeast 435 501 31,000  Level Denver Center
09:57AM 41.5847 -106.2639 144° Southeast 433 498 31,000  Level Denver Center
09:58AM 41.4883 -106.1717 144° Southeast 441 507 31,000  Level Denver Center
09:59AM 41.3775 -106.0650 144° Southeast 441 507 31,000  Level Denver Center
10:00AM 41.2797 -105.9736 145° Southeast 447 514 31,000  Level Denver Center
10:01AM 41.1686 -105.8678 144° Southeast 441 507 31,000  Level Denver Center
10:02AM 41.0722 -105.7778 145° Southeast 442 509 31,000 -960 Level Denver Center
10:03AM 40.9681 -105.6819 145° Southeast 442 509 29,100 -1,920 Descending Denver Center
10:04AM 40.8700 -105.5911 145° Southeast 429 494 27,100 -1,980 Descending Denver Center
10:05AM 40.7775 -105.5017 144° Southeast 411 473 25,100 -1,980 Descending Denver Center
10:07AM 40.6892 -105.4225 146° Southeast 387 445 23,100 -2,040 Descending Denver Center
10:08AM 40.6036 -105.3422 145° Southeast 375 432 21,000 -2,040 Descending Denver Center
10:09AM 40.5206 -105.2678 146° Southeast 361 415 19,000 -1,860 Descending Denver Center
10:10AM 40.4664 -105.1486 121° Southeast 373 429 17,300 -1,440 Descending Denver Center
10:11AM 40.4283 -105.0331 113° Southeast 349 402 16,100 -1,320 Descending Denver Center
10:12AM 40.3706 -104.9294 126° Southeast 329 379 14,600 -1,620 Descending Denver Center
10:13AM 40.2983 -104.8758 150° Southeast 292 336 12,900 -1,680 Descending Denver Center
10:14AM 40.2244 -104.8325 156° South 289 333 11,200 -1,680 Descending Denver Center
10:15AM 40.1386 -104.7814 156° South 276 318 9,200 -1,380 Descending Denver Center
10:16AM 40.0700 -104.7358 153° Southeast 259 298 8,100 -900 Descending Denver Center
10:17AM 40.0131 -104.6994 154° Southeast 228 262 7,400 -720 Descending Denver Center
10:18AM 39.9619 -104.6867 169° South 187 215 6,700 -720 Descending Denver Center